»·PEaware :: N7732J KTOA-KVNY

N7732J :: KTOA-KVNY

FLIGHT INFORMATION

Flight Status: Arrived
Operator: Privately registered:
United States
More flights under this callsign
Pilot: Scott G. (88)
Aircraft: BEECH AIRCRAFT BARON
(BE58)
More flights by this aircraft type
Origin: KTOA Zamperini
United States
Destination: KVNY Van Nuys
United States
More flights between these airports :: More routes between these airports
Route: +LAX170 LIMBO V64 SMO125 SMO SMO317 CANOG
File this flight plan on PilotEdge
Remarks: SKY HIGH Scenario 1
Altitude:
(Current/Filed)
4,000ft
Speed:
(Current/Filed)
180kts
Departed: 08-Feb-19 10:07 AM
Arrived: 08-Feb-19 11:04 AM
Distance/Time
Traveled:
25nm/0:57
Distance/Time
To Go:
Arrived

Flight Plot

Page will automatically refresh every two minutes.

Flight plan parsing failed; only flown route is shown


Map Options




Map Legend


Flown Route
Filed Route
Departure Airport
Arrival Airport
Navaid (VOR, NDB)
Fix

Horizontal Profiles

Position Reports

Time Latitude Longitude Heading Altitude Ground
Speed
08-Feb-19 09:34 33.803346 -118.344052 39 107ft 0kts
08-Feb-19 09:35 33.803346 -118.344052 39 107ft 0kts
08-Feb-19 09:36 33.803346 -118.344052 39 107ft 0kts
08-Feb-19 09:37 33.803346 -118.344052 39 107ft 0kts
08-Feb-19 09:38 33.803346 -118.344052 39 107ft 0kts
08-Feb-19 09:39 33.803346 -118.344052 39 107ft 0kts
08-Feb-19 09:40 33.803346 -118.344052 39 107ft 0kts
08-Feb-19 09:41 33.803346 -118.344052 39 107ft 0kts
08-Feb-19 09:42 33.803346 -118.344052 39 107ft 0kts
08-Feb-19 09:43 33.803346 -118.344052 39 107ft 0kts
08-Feb-19 09:44 33.803346 -118.344052 39 107ft 0kts
08-Feb-19 09:45 33.803346 -118.344052 39 107ft 0kts
08-Feb-19 09:46 33.803346 -118.344052 39 107ft 0kts
08-Feb-19 09:47 33.803346 -118.344052 39 107ft 0kts
08-Feb-19 09:48 33.803346 -118.344052 39 107ft 0kts
08-Feb-19 09:49 33.803346 -118.344052 39 107ft 0kts
08-Feb-19 09:50 33.803346 -118.344052 39 107ft 0kts
08-Feb-19 09:51 33.803346 -118.344052 39 107ft 0kts
08-Feb-19 09:52 33.803346 -118.344052 39 107ft 0kts
08-Feb-19 09:53 33.803346 -118.344052 39 107ft 0kts
08-Feb-19 09:54 33.803346 -118.344052 39 107ft 0kts
08-Feb-19 09:55 33.803346 -118.344052 39 107ft 0kts
08-Feb-19 09:56 33.803346 -118.344052 39 107ft 0kts
08-Feb-19 09:57 33.803346 -118.344052 39 107ft 0kts
08-Feb-19 09:58 33.803346 -118.344052 39 107ft 0kts
08-Feb-19 09:59 33.803346 -118.344052 39 107ft 0kts
08-Feb-19 10:00 33.803416 -118.343907 96 107ft 5kts
08-Feb-19 10:01 33.802089 -118.340644 128 107ft 18kts
08-Feb-19 10:02 33.798218 -118.334818 127 107ft 18kts
08-Feb-19 10:03 33.798932 -118.333111 330 107ft 0kts
08-Feb-19 10:04 33.798932 -118.333111 330 107ft 0kts
08-Feb-19 10:05 33.799612 -118.332964 336 107ft 7kts
08-Feb-19 10:06 33.808169 -118.346161 305 486ft 110kts
08-Feb-19 10:07 33.826813 -118.377790 302 2258ft 116kts
08-Feb-19 10:08 33.845238 -118.411820 302 3792ft 125kts
08-Feb-19 10:09 33.855446 -118.454413 204 3986ft 167kts
08-Feb-19 10:10 33.809689 -118.445151 181 4019ft 174kts
08-Feb-19 10:11 33.761744 -118.440624 145 4018ft 176kts
08-Feb-19 10:12 33.755517 -118.386402 71 4019ft 180kts
08-Feb-19 10:13 33.769907 -118.328032 80 4027ft 183kts
08-Feb-19 10:14 33.775119 -118.266828 88 4025ft 184kts
08-Feb-19 10:15 33.808983 -118.257638 321 4036ft 183kts
08-Feb-19 10:16 33.849977 -118.294611 319 4026ft 184kts
08-Feb-19 10:17 33.889138 -118.334262 320 4035ft 183kts
08-Feb-19 10:19 33.927863 -118.373386 320 4035ft 182kts
08-Feb-19 10:20 33.966818 -118.412728 320 4034ft 182kts
08-Feb-19 10:21 34.005548 -118.451935 320 4033ft 182kts
08-Feb-19 10:22 34.049341 -118.481874 332 4033ft 182kts
08-Feb-19 10:23 34.094603 -118.510999 332 4034ft 186kts
08-Feb-19 10:24 34.140563 -118.540621 332 4032ft 187kts
08-Feb-19 10:25 34.186658 -118.570371 332 4112ft 183kts
08-Feb-19 10:26 34.233122 -118.584910 352 4625ft 166kts
08-Feb-19 10:27 34.278845 -118.592808 352 5080ft 166kts
08-Feb-19 10:28 34.326721 -118.600803 0 4973ft 171kts
08-Feb-19 10:29 34.374074 -118.600936 0 4977ft 168kts
08-Feb-19 10:30 34.420591 -118.601031 0 5008ft 166kts
08-Feb-19 10:31 34.466720 -118.600106 0 5017ft 166kts
08-Feb-19 10:32 34.513053 -118.599709 9 5018ft 166kts
08-Feb-19 10:33 34.533932 -118.555273 93 5029ft 166kts
08-Feb-19 10:34 34.502111 -118.518625 163 5021ft 166kts
08-Feb-19 10:35 34.456200 -118.513674 175 5018ft 166kts
08-Feb-19 10:36 34.413548 -118.509609 175 5013ft 166kts
08-Feb-19 10:37 34.367343 -118.505241 175 4700ft 163kts
08-Feb-19 10:37 34.333389 -118.502017 175 3849ft 140kts
08-Feb-19 10:38 34.295606 -118.498455 175 2895ft 132kts
08-Feb-19 10:40 34.255333 -118.494665 175 1874ft 119kts
08-Feb-19 10:41 34.223254 -118.491598 174 1053ft 107kts
08-Feb-19 10:41 34.197828 -118.489485 176 1364ft 114kts
08-Feb-19 10:42 34.165152 -118.475334 167 2326ft 136kts
08-Feb-19 10:43 34.124852 -118.464142 167 3197ft 150kts
08-Feb-19 10:44 34.084096 -118.452783 167 4194ft 150kts
08-Feb-19 10:45 34.039834 -118.453987 185 4560ft 176kts
08-Feb-19 10:46 33.991140 -118.468419 226 4555ft 186kts
08-Feb-19 10:47 33.998601 -118.523033 300 4616ft 182kts
08-Feb-19 10:48 34.028851 -118.573542 309 4617ft 184kts
08-Feb-19 10:49 34.043331 -118.632341 278 4620ft 184kts
08-Feb-19 10:50 34.051603 -118.692031 282 4618ft 172kts
08-Feb-19 10:51 34.061225 -118.745907 283 4622ft 159kts
08-Feb-19 10:52 34.070472 -118.797546 286 4624ft 157kts
08-Feb-19 10:53 34.105857 -118.812498 22 4990ft 154kts
08-Feb-19 10:54 34.148529 -118.790510 22 5023ft 175kts
08-Feb-19 10:55 34.194155 -118.766867 26 5016ft 182kts
08-Feb-19 10:56 34.207304 -118.713141 103 5014ft 181kts
08-Feb-19 10:57 34.200017 -118.654907 85 4684ft 169kts
08-Feb-19 10:58 34.200587 -118.599689 90 4499ft 170kts
08-Feb-19 10:59 34.199915 -118.539312 89 3584ft 173kts
08-Feb-19 11:00 34.221375 -118.509984 349 2339ft 136kts
08-Feb-19 11:01 34.235968 -118.496331 149 1534ft 96kts
08-Feb-19 11:02 34.211083 -118.490459 177 806ft 73kts
08-Feb-19 11:03 34.204212 -118.490803 265 806ft 0kts
08-Feb-19 11:04 34.206527 -118.491254 353 806ft 18kts
08-Feb-19 11:05 34.207204 -118.492165 86 806ft 0kts
08-Feb-19 11:06 34.207204 -118.492165 86 806ft 0kts
08-Feb-19 11:07 34.207204 -118.492178 77 806ft 1kts
08-Feb-19 11:08 34.207182 -118.492331 87 806ft 0kts

Navigation Log

Ident Type
Flight plan parsing failed, navigation log unavailable